TAF Text Data
IDs:
Format:
Raw Decoded Include METAR

Data at: 0806 UTC 18 Sep 2021

METAR for:KSOA (Sonora Muni, TX, US)
Text:KSOA 180755Z AUTO 00000KT 10SM CLR 26/16 A3012 RMK AO2
Temperature: 26.0°C ( 79°F)
Dewpoint: 16.0°C ( 61°F) [RH = 54%]
Pressure (altimeter):30.12 inches Hg (1020.1 mb)
Winds:calm
Visibility:10 or more sm (16+ km)
Ceiling:at least 12,000 feet AGL
Clouds:sky clear below 12,000 feet AGL
QC Flag:automated observation with no human augmentation

TAF for:KSOA (Sonora Muni, TX, US) issued at 0534 UTC 18 Sep 2021
Text:KSOA 180534Z 1806/1906 00000KT P6SM SKC
Forecast period:0600 to 1600 UTC 18 September 2021
Forecast type:FROM: standard forecast or significant change
Winds:calm
Visibility:6 or more sm (10+ km)
Ceiling:at least 12,000 feet AGL
Clouds:clear skies
Text:FM181600 05007KT P6SM SKC
Forecast period:1600 UTC 18 September 2021 to 0600 UTC 19 September 2021
Forecast type:FROM: standard forecast or significant change
Winds:from the NE (50 degrees) at 8 MPH (7 knots; 3.6 m/s)
Visibility:6 or more sm (10+ km)
Ceiling:at least 12,000 feet AGL
Clouds:clear skies